createdAt,value
2022-12-13T00:01:32.714Z,-7.02
2022-12-13T00:04:02.580Z,-7.03
2022-12-13T00:06:31.472Z,-7.02
2022-12-13T00:09:00.042Z,-7.14
2022-12-13T00:11:29.418Z,-7.26
2022-12-13T00:13:57.689Z,-7.31
2022-12-13T00:16:27.407Z,-7.20
2022-12-13T00:18:57.695Z,-7.14
2022-12-13T00:21:27.796Z,-7.17
2022-12-13T00:23:55.648Z,-7.22
2022-12-13T00:26:25.461Z,-7.24
2022-12-13T00:28:54.833Z,-7.20
2022-12-13T00:31:56.595Z,-7.28
2022-12-13T00:34:12.520Z,-7.17
2022-12-13T00:36:40.451Z,-7.34
2022-12-13T00:39:08.634Z,-7.34
2022-12-13T00:41:37.928Z,-7.36
2022-12-13T00:44:07.371Z,-7.23
2022-12-13T00:46:35.245Z,-7.33
2022-12-13T00:49:03.271Z,-7.43
2022-12-13T00:51:33.432Z,-7.44
2022-12-13T00:54:02.622Z,-7.43
2022-12-13T00:56:32.355Z,-7.47
2022-12-13T00:59:00.734Z,-7.52
2022-12-13T01:01:32.489Z,-7.53
2022-12-13T01:04:01.935Z,-7.60
2022-12-13T01:06:34.244Z,-7.62
2022-12-13T01:09:03.686Z,-7.74
2022-12-13T01:11:31.634Z,-7.79
2022-12-13T01:13:59.464Z,-7.83
2022-12-13T01:16:27.525Z,-7.87
2022-12-13T01:18:58.465Z,-7.85
2022-12-13T01:21:26.340Z,-7.82
2022-12-13T01:23:54.166Z,-7.85
2022-12-13T01:26:23.874Z,-7.80
2022-12-13T01:28:51.962Z,-7.85
2022-12-13T01:31:21.314Z,-7.97
2022-12-13T01:33:50.188Z,-8.01
2022-12-13T01:36:27.989Z,-8.07
2022-12-13T01:38:58.482Z,-7.97
2022-12-13T01:41:28.285Z,-8.06
2022-12-13T01:44:01.245Z,-8.07
2022-12-13T01:46:29.751Z,-8.07
2022-12-13T01:49:04.634Z,-8.10
2022-12-13T01:51:38.477Z,-8.18
2022-12-13T01:54:10.403Z,-8.22
2022-12-13T01:56:42.310Z,-8.28
2022-12-13T01:59:12.040Z,-8.22
2022-12-13T02:01:41.217Z,-8.27
2022-12-13T02:04:09.733Z,-8.24
2022-12-13T02:06:42.149Z,-8.18
2022-12-13T02:09:11.231Z,-8.20
2022-12-13T02:11:43.586Z,-8.22
2022-12-13T02:14:11.636Z,-8.32
2022-12-13T02:16:50.348Z,-8.36
2022-12-13T02:19:44.311Z,-8.36
2022-12-13T02:22:34.123Z,-8.26
2022-12-13T02:25:34.257Z,-8.38
2022-12-13T02:28:30.965Z,-8.22
2022-12-13T02:31:09.348Z,-8.30
2022-12-13T02:33:48.068Z,-8.28
2022-12-13T02:36:25.116Z,-8.34
2022-12-13T02:39:00.366Z,-8.37
2022-12-13T02:41:37.366Z,-8.36
2022-12-13T02:44:21.748Z,-8.39
2022-12-13T02:46:55.577Z,-8.43
2022-12-13T02:49:26.795Z,-8.43
2022-12-13T02:51:57.690Z,-8.31
2022-12-13T02:54:25.828Z,-8.33
2022-12-13T02:56:55.419Z,-8.31
2022-12-13T02:59:26.094Z,-8.37
2022-12-13T03:02:09.662Z,-8.25
2022-12-13T03:05:13.541Z,-8.42
2022-12-13T03:07:52.720Z,-8.45
2022-12-13T03:10:28.501Z,-8.40
2022-12-13T03:13:20.018Z,-8.46
2022-12-13T03:15:56.911Z,-8.48
2022-12-13T03:18:28.311Z,-8.46
2022-12-13T03:21:00.010Z,-8.61
2022-12-13T03:23:28.904Z,-8.56
2022-12-13T03:26:00.665Z,-8.56
2022-12-13T03:28:28.648Z,-8.66
2022-12-13T03:30:56.615Z,-8.55
2022-12-13T03:33:26.063Z,-8.57
2022-12-13T03:35:54.113Z,-8.46
2022-12-13T03:38:23.462Z,-8.43
2022-12-13T03:40:54.479Z,-8.46
2022-12-13T03:43:23.323Z,-8.53
2022-12-13T03:45:51.962Z,-8.59
2022-12-13T03:48:21.831Z,-8.61
2022-12-13T03:50:54.195Z,-8.70
2022-12-13T03:53:33.460Z,-8.68
2022-12-13T03:56:02.795Z,-8.77
2022-12-13T03:58:35.104Z,-8.84
2022-12-13T04:01:06.458Z,-8.83
2022-12-13T04:03:34.542Z,-8.89
2022-12-13T04:06:03.965Z,-8.87
2022-12-13T04:08:32.464Z,-8.84
2022-12-13T04:11:00.642Z,-8.85
2022-12-13T04:13:33.279Z,-8.98
2022-12-13T04:16:01.607Z,-8.94
2022-12-13T04:18:29.685Z,-8.88
2022-12-13T04:20:57.698Z,-8.94
2022-12-13T04:23:27.096Z,-9.00
2022-12-13T04:25:55.145Z,-9.00
2022-12-13T04:28:23.413Z,-9.01
2022-12-13T04:30:52.953Z,-8.98
2022-12-13T04:33:21.796Z,-8.93
2022-12-13T04:35:50.116Z,-9.06
2022-12-13T04:38:18.091Z,-9.02
2022-12-13T04:40:49.547Z,-9.02
2022-12-13T04:43:17.648Z,-9.05
2022-12-13T04:45:45.523Z,-9.08
2022-12-13T04:48:13.821Z,-9.04
2022-12-13T04:51:01.349Z,-9.09
2022-12-13T04:53:30.034Z,-9.10
2022-12-13T04:55:59.734Z,-9.09
2022-12-13T04:58:28.771Z,-9.08
2022-12-13T05:00:56.683Z,-9.11
2022-12-13T05:03:25.289Z,-9.10
2022-12-13T05:05:53.154Z,-9.11
2022-12-13T05:08:21.345Z,-9.09
2022-12-13T05:10:49.245Z,-9.09
2022-12-13T05:13:18.513Z,-9.14
2022-12-13T05:15:49.517Z,-9.01
2022-12-13T05:18:21.541Z,-8.95
2022-12-13T05:20:51.116Z,-8.95
2022-12-13T05:23:22.980Z,-9.07
2022-12-13T05:25:51.341Z,-9.15
2022-12-13T05:28:28.538Z,-9.04
2022-12-13T05:30:58.405Z,-9.09
2022-12-13T05:33:27.318Z,-9.19
2022-12-13T05:36:00.484Z,-9.17
2022-12-13T05:38:30.312Z,-9.15
2022-12-13T05:40:58.432Z,-9.09
2022-12-13T05:43:43.194Z,-9.03
2022-12-13T05:46:12.442Z,-9.03
2022-12-13T05:48:40.501Z,-9.04
2022-12-13T05:51:09.841Z,-9.05
2022-12-13T05:53:40.109Z,-9.08
2022-12-13T05:56:08.661Z,-9.08
2022-12-13T05:58:39.374Z,-9.15
2022-12-13T06:01:08.780Z,-9.19
2022-12-13T06:03:37.061Z,-9.15
2022-12-13T06:06:06.721Z,-9.17
2022-12-13T06:08:34.925Z,-9.26
2022-12-13T06:11:11.242Z,-9.24
2022-12-13T06:13:43.852Z,-9.34
2022-12-13T06:16:22.807Z,-9.26
2022-12-13T06:19:02.804Z,-9.17
2022-12-13T06:21:41.145Z,-9.25
2022-12-13T06:24:14.269Z,-9.15
2022-12-13T06:26:42.135Z,-9.16
2022-12-13T06:29:11.668Z,-9.17
2022-12-13T06:31:39.521Z,-9.14
2022-12-13T06:34:14.203Z,-9.29
2022-12-13T06:36:43.367Z,-9.28
2022-12-13T06:39:11.265Z,-9.22
2022-12-13T06:41:39.598Z,-9.22
2022-12-13T06:44:07.445Z,-9.25
2022-12-13T06:46:36.934Z,-9.24
2022-12-13T06:49:08.710Z,-9.22
2022-12-13T06:51:36.566Z,-9.18
2022-12-13T06:54:04.826Z,-9.20
2022-12-13T06:56:32.979Z,-9.26
2022-12-13T06:59:02.286Z,-9.16
2022-12-13T07:01:37.069Z,-9.21
2022-12-13T07:04:29.340Z,-9.15
2022-12-13T07:07:01.309Z,-9.15
2022-12-13T07:09:30.854Z,-9.06
2022-12-13T07:11:58.819Z,-9.11
2022-12-13T07:14:26.761Z,-9.17
2022-12-13T07:17:02.828Z,-9.14
2022-12-13T07:19:35.570Z,-9.17
2022-12-13T07:22:05.850Z,-9.04
2022-12-13T07:24:35.043Z,-8.94
2022-12-13T07:27:03.638Z,-8.83
2022-12-13T07:29:32.258Z,-8.83
2022-12-13T07:32:02.279Z,-8.92
2022-12-13T07:34:32.313Z,-8.98
2022-12-13T07:37:00.297Z,-9.01
2022-12-13T07:39:28.526Z,-8.97
2022-12-13T07:41:57.037Z,-9.02
2022-12-13T07:44:25.682Z,-8.98
2022-12-13T07:46:53.903Z,-9.07
2022-12-13T07:49:21.775Z,-8.95
2022-12-13T07:51:51.109Z,-8.91
2022-12-13T07:54:19.304Z,-8.89
2022-12-13T07:56:47.571Z,-8.83
2022-12-13T07:59:15.873Z,-8.90
2022-12-13T08:01:56.805Z,-8.80
2022-12-13T08:04:24.781Z,-8.89
2022-12-13T08:06:54.128Z,-9.06
2022-12-13T08:09:22.072Z,-9.09
2022-12-13T08:11:52.126Z,-8.96
2022-12-13T08:14:20.356Z,-8.85
2022-12-13T08:16:48.933Z,-8.86
2022-12-13T08:19:17.295Z,-8.75
2022-12-13T08:21:55.216Z,-8.76
2022-12-13T08:24:26.423Z,-8.69
2022-12-13T08:26:55.071Z,-8.59
2022-12-13T08:29:33.987Z,-8.66
2022-12-13T08:32:04.376Z,-8.63
2022-12-13T08:34:32.757Z,-8.53
2022-12-13T08:37:03.239Z,-8.49
2022-12-13T08:39:35.341Z,-8.34
2022-12-13T08:42:16.099Z,-8.31
2022-12-13T08:44:47.080Z,-8.37
2022-12-13T08:47:22.553Z,-8.25
2022-12-13T08:49:53.314Z,-8.11
2022-12-13T08:52:23.049Z,-8.06
2022-12-13T08:54:52.512Z,-8.13
2022-12-13T08:57:20.569Z,-8.01
2022-12-13T08:59:50.354Z,-7.85
2022-12-13T09:02:18.469Z,-7.70
2022-12-13T09:04:47.226Z,-7.68
2022-12-13T09:07:15.419Z,-7.54
2022-12-13T09:09:43.270Z,-7.35
2022-12-13T09:12:29.876Z,-7.39
2022-12-13T09:15:01.249Z,-7.15
2022-12-13T09:17:36.385Z,-7.13
2022-12-13T09:20:28.093Z,-6.83
2022-12-13T09:23:01.561Z,-6.37
2022-12-13T09:25:36.822Z,-5.95
2022-12-13T09:28:09.174Z,-6.02
2022-12-13T09:30:38.025Z,-6.04
2022-12-13T09:33:18.185Z,-6.18
2022-12-13T09:35:54.475Z,-5.89
2022-12-13T09:38:22.357Z,-5.76
2022-12-13T09:40:58.399Z,-5.36
2022-12-13T09:43:33.753Z,-5.08
2022-12-13T09:46:23.030Z,-4.60
2022-12-13T09:49:01.636Z,-4.46
2022-12-13T09:51:43.676Z,-4.36
2022-12-13T09:54:19.499Z,-4.31
2022-12-13T09:56:50.861Z,-4.16
2022-12-13T09:59:27.768Z,-4.76
2022-12-13T10:01:55.958Z,-4.10
2022-12-13T10:04:23.922Z,-3.81
2022-12-13T10:06:54.593Z,-3.68
2022-12-13T10:09:22.917Z,-4.12
2022-12-13T10:11:52.491Z,-3.69
2022-12-13T10:14:27.584Z,-3.57
2022-12-13T10:16:58.907Z,-3.46
2022-12-13T10:19:34.989Z,-3.39
2022-12-13T10:22:04.722Z,-3.50
2022-12-13T10:24:50.491Z,-2.48
2022-12-13T10:27:20.456Z,-2.93
2022-12-13T10:30:02.919Z,-2.22
2022-12-13T10:32:37.532Z,-1.49
2022-12-13T10:35:20.792Z,-1.95
2022-12-13T10:37:48.960Z,-1.56
2022-12-13T10:40:32.421Z,-2.05
2022-12-13T10:43:14.187Z,-2.58
2022-12-13T10:45:45.107Z,-2.30
2022-12-13T10:48:22.309Z,-2.32
2022-12-13T10:51:00.019Z,-2.23
2022-12-13T10:53:34.124Z,-2.06
2022-12-13T10:56:03.185Z,-1.76
2022-12-13T10:58:40.154Z,-0.68
2022-12-13T11:01:24.421Z,-0.13
2022-12-13T11:04:02.345Z,-0.99
2022-12-13T11:06:43.456Z,-0.61
2022-12-13T11:09:23.081Z,-0.51
2022-12-13T11:11:58.012Z,-0.24
2022-12-13T11:14:31.845Z,0.01
2022-12-13T11:17:08.876Z,-1.40
2022-12-13T11:19:40.772Z,-0.85
2022-12-13T11:22:11.095Z,-0.65
2022-12-13T11:24:42.264Z,-0.66
2022-12-13T11:27:29.503Z,-0.95
2022-12-13T11:30:10.229Z,-0.69
2022-12-13T11:32:58.902Z,0.27
2022-12-13T11:35:33.954Z,0.51
2022-12-13T11:38:09.506Z,0.53
2022-12-13T11:40:44.650Z,0.66
2022-12-13T11:43:25.124Z,0.12
2022-12-13T11:45:56.911Z,-0.13
2022-12-13T11:48:38.243Z,0.78
2022-12-13T11:51:09.237Z,0.77
2022-12-13T11:53:47.250Z,0.29
2022-12-13T11:56:25.539Z,-0.75
2022-12-13T11:59:03.938Z,-0.08
2022-12-13T12:01:40.102Z,-0.33
2022-12-13T12:04:18.345Z,0.08
2022-12-13T12:06:53.103Z,0.57
2022-12-13T12:09:26.276Z,0.39
2022-12-13T12:12:02.178Z,0.36
2022-12-13T12:14:37.543Z,0.30
2022-12-13T12:17:06.861Z,1.63
2022-12-13T12:19:39.762Z,2.00
2022-12-13T12:22:22.547Z,1.00
2022-12-13T12:25:02.877Z,1.56
2022-12-13T12:27:38.811Z,0.76
2022-12-13T12:30:23.568Z,0.56
2022-12-13T12:33:05.746Z,1.07
2022-12-13T12:35:59.577Z,0.46
2022-12-13T12:39:06.371Z,0.34
2022-12-13T12:41:46.037Z,0.92
2022-12-13T12:44:30.754Z,1.42
2022-12-13T12:50:24.252Z,1.29
2022-12-13T12:53:07.238Z,0.89
2022-12-13T12:55:49.241Z,1.34
2022-12-13T12:58:26.702Z,1.29
2022-12-13T13:01:09.217Z,0.74
2022-12-13T13:03:40.108Z,-0.63
2022-12-13T13:06:13.652Z,-0.68
2022-12-13T13:08:51.480Z,-0.79
2022-12-13T13:11:25.834Z,-0.28
2022-12-13T13:14:06.678Z,-0.89
2022-12-13T13:16:37.779Z,-1.00
2022-12-13T13:19:06.538Z,-0.72
2022-12-13T13:21:52.152Z,-0.78
2022-12-13T13:24:24.405Z,-0.93
2022-12-13T13:26:55.284Z,0.57
2022-12-13T13:29:43.242Z,0.22
2022-12-13T13:32:40.828Z,-0.48
2022-12-13T13:35:53.379Z,-0.30
2022-12-13T13:38:52.549Z,-0.07
2022-12-13T13:41:57.456Z,-0.59
2022-12-13T13:45:04.509Z,-0.95
2022-12-13T13:47:43.344Z,-1.28
2022-12-13T13:50:49.719Z,-1.46
2022-12-13T13:54:02.255Z,-1.63
2022-12-13T13:57:09.050Z,-1.80
2022-12-13T14:00:12.019Z,-2.09
2022-12-13T14:03:33.151Z,-2.02
2022-12-13T14:06:49.592Z,-1.48
2022-12-13T14:10:05.142Z,-1.70
2022-12-13T14:12:59.282Z,-1.60
2022-12-13T14:16:03.955Z,-2.05
2022-12-13T14:19:17.733Z,-1.95
2022-12-13T14:21:59.365Z,-2.16
2022-12-13T14:24:40.013Z,-2.27
2022-12-13T14:27:35.253Z,-2.36
2022-12-13T14:30:17.973Z,-2.34
2022-12-13T14:32:53.502Z,-2.58
2022-12-13T14:35:27.406Z,-2.51
2022-12-13T14:38:04.655Z,-2.67
2022-12-13T14:40:34.756Z,-2.64
2022-12-13T14:43:03.119Z,-2.92
2022-12-13T14:45:34.654Z,-2.98
2022-12-13T14:48:10.075Z,-3.01
2022-12-13T14:50:40.115Z,-3.12
2022-12-13T14:53:09.895Z,-3.24
2022-12-13T14:55:38.805Z,-3.20
2022-12-13T14:58:20.185Z,-3.23
2022-12-13T15:00:49.147Z,-3.29
2022-12-13T15:03:24.914Z,-3.41
2022-12-13T15:05:55.730Z,-3.42
2022-12-13T15:08:24.521Z,-3.49
2022-12-13T15:10:54.806Z,-3.43
2022-12-13T15:13:29.498Z,-3.60
2022-12-13T15:16:01.336Z,-3.60
2022-12-13T15:18:31.204Z,-3.72
2022-12-13T15:20:59.839Z,-3.61
2022-12-13T15:23:32.725Z,-3.65
2022-12-13T15:26:03.996Z,-3.64
2022-12-13T15:28:34.790Z,-3.68
2022-12-13T15:31:05.398Z,-3.69
2022-12-13T15:33:41.071Z,-3.81
2022-12-13T15:36:20.158Z,-4.04
2022-12-13T15:39:01.366Z,-3.98
2022-12-13T15:41:31.478Z,-4.03
2022-12-13T15:44:03.413Z,-3.95
2022-12-13T15:46:36.882Z,-3.96
2022-12-13T15:49:14.149Z,-3.97
2022-12-13T15:51:57.910Z,-3.99
2022-12-13T15:54:27.641Z,-4.01
2022-12-13T15:57:13.069Z,-4.04
2022-12-13T15:59:42.380Z,-4.04
2022-12-13T16:02:18.123Z,-4.24
2022-12-13T16:04:47.464Z,-4.30
2022-12-13T16:07:25.014Z,-4.24
2022-12-13T16:09:54.399Z,-4.18
2022-12-13T16:12:25.921Z,-4.12
2022-12-13T16:14:53.772Z,-4.15
2022-12-13T16:17:36.939Z,-4.13
2022-12-13T16:20:14.184Z,-4.12
2022-12-13T16:22:42.624Z,-4.08
2022-12-13T16:25:13.657Z,-3.99
2022-12-13T16:27:41.856Z,-4.12
2022-12-13T16:30:16.781Z,-4.12
2022-12-13T16:33:17.533Z,-4.12
2022-12-13T16:35:34.181Z,-4.22
2022-12-13T16:38:09.135Z,-4.15
2022-12-13T16:40:37.673Z,-4.06
2022-12-13T16:43:07.389Z,-4.06
2022-12-13T16:45:42.205Z,-4.06
2022-12-13T16:48:10.816Z,-3.98
2022-12-13T16:50:43.954Z,-4.03
2022-12-13T16:53:17.172Z,-4.11
2022-12-13T16:55:45.657Z,-4.14
2022-12-13T16:58:26.350Z,-4.18
2022-12-13T17:00:59.742Z,-4.19
2022-12-13T17:03:28.595Z,-4.25
2022-12-13T17:05:58.713Z,-4.19
2022-12-13T17:08:28.011Z,-4.19
2022-12-13T17:10:58.275Z,-4.31
2022-12-13T17:13:26.872Z,-4.33
2022-12-13T17:15:59.625Z,-4.45
2022-12-13T17:18:28.812Z,-4.62
2022-12-13T17:20:59.032Z,-4.59
2022-12-13T17:23:27.534Z,-4.63
2022-12-13T17:25:58.025Z,-4.70
2022-12-13T17:28:27.343Z,-4.78
2022-12-13T17:30:56.002Z,-4.62
2022-12-13T17:33:28.546Z,-4.72
2022-12-13T17:35:58.198Z,-4.79
2022-12-13T17:38:26.353Z,-4.81
2022-12-13T17:40:55.279Z,-4.91
2022-12-13T17:43:33.019Z,-4.88
2022-12-13T17:46:03.950Z,-4.84
2022-12-13T17:48:39.309Z,-4.79
2022-12-13T17:51:11.011Z,-4.87
2022-12-13T17:53:41.042Z,-4.88
2022-12-13T17:56:12.044Z,-4.85
2022-12-13T17:58:40.563Z,-4.85
2022-12-13T18:01:13.897Z,-4.97
2022-12-13T18:03:42.565Z,-5.00
2022-12-13T18:06:12.615Z,-4.90
2022-12-13T18:08:44.544Z,-4.89
2022-12-13T18:14:02.575Z,-4.82
2022-12-13T18:16:37.096Z,-4.88
2022-12-13T18:19:09.180Z,-4.97
2022-12-13T18:21:39.244Z,-4.95
2022-12-13T18:24:08.333Z,-4.96
2022-12-13T18:26:36.331Z,-4.87
2022-12-13T18:29:05.489Z,-4.99
2022-12-13T18:31:33.701Z,-4.98
2022-12-13T18:34:03.593Z,-4.98
2022-12-13T18:36:34.624Z,-4.88
2022-12-13T18:39:05.353Z,-4.89
2022-12-13T18:41:33.755Z,-4.78
2022-12-13T18:44:03.939Z,-4.87
2022-12-13T18:46:33.252Z,-4.89
2022-12-13T18:49:01.692Z,-4.84
2022-12-13T18:51:30.016Z,-4.88
2022-12-13T18:53:59.267Z,-4.90
2022-12-13T18:56:29.913Z,-4.92
2022-12-13T18:58:59.547Z,-5.03
2022-12-13T19:01:28.591Z,-5.04
2022-12-13T19:03:59.795Z,-5.11
2022-12-13T19:06:28.872Z,-5.11
2022-12-13T19:08:58.913Z,-5.12
2022-12-13T19:11:29.558Z,-5.16
2022-12-13T19:13:58.015Z,-5.15
2022-12-13T19:16:26.739Z,-5.16
2022-12-13T19:18:55.038Z,-5.14
2022-12-13T19:21:24.043Z,-5.13
2022-12-13T19:23:57.429Z,-5.15
2022-12-13T19:26:26.817Z,-4.92
2022-12-13T19:28:57.473Z,-4.90
2022-12-13T19:31:31.144Z,-4.82
2022-12-13T19:34:01.184Z,-4.89
2022-12-13T19:36:29.431Z,-4.87
2022-12-13T19:38:57.389Z,-4.93
2022-12-13T19:41:26.289Z,-4.92
2022-12-13T19:43:55.824Z,-4.89
2022-12-13T19:46:23.987Z,-4.92
2022-12-13T19:48:53.260Z,-4.98
2022-12-13T19:51:21.578Z,-4.99
2022-12-13T19:53:49.792Z,-4.96
2022-12-13T19:56:20.712Z,-4.94
2022-12-13T19:58:50.064Z,-4.92
2022-12-13T20:01:20.140Z,-4.90
2022-12-13T20:03:48.735Z,-4.99
2022-12-13T20:06:19.203Z,-4.97
2022-12-13T20:08:47.517Z,-4.84
2022-12-13T20:11:17.138Z,-4.79
2022-12-13T20:13:45.205Z,-4.93
2022-12-13T20:16:17.881Z,-4.92
2022-12-13T20:18:47.897Z,-4.94
2022-12-13T20:21:16.743Z,-4.85
2022-12-13T20:23:49.531Z,-4.82
2022-12-13T20:26:21.102Z,-4.72
2022-12-13T20:28:49.677Z,-4.72
2022-12-13T20:31:19.728Z,-4.68
2022-12-13T20:33:49.965Z,-4.74
2022-12-13T20:36:25.330Z,-4.75
2022-12-13T20:38:55.820Z,-4.80
2022-12-13T20:41:26.039Z,-4.83
2022-12-13T20:43:54.864Z,-4.83
2022-12-13T20:46:23.295Z,-4.82
2022-12-13T20:48:53.412Z,-4.78
2022-12-13T20:51:23.976Z,-4.70
2022-12-13T20:53:53.396Z,-4.75
2022-12-13T20:56:23.369Z,-4.76
2022-12-13T20:58:52.127Z,-4.68
2022-12-13T21:01:21.797Z,-4.70
2022-12-13T21:03:50.567Z,-4.70
2022-12-13T21:06:19.889Z,-4.64
2022-12-13T21:08:54.579Z,-4.67
2022-12-13T21:11:27.679Z,-4.62
2022-12-13T21:14:06.824Z,-4.62
2022-12-13T21:16:41.939Z,-4.60
2022-12-13T21:19:13.027Z,-4.58
2022-12-13T21:21:42.675Z,-4.65
2022-12-13T21:24:13.300Z,-4.55
2022-12-13T21:26:41.291Z,-4.51
2022-12-13T21:29:11.169Z,-4.56
2022-12-13T21:31:40.514Z,-4.48
2022-12-13T21:34:09.196Z,-4.48
2022-12-13T21:36:38.884Z,-4.49
2022-12-13T21:39:12.419Z,-4.45
2022-12-13T21:41:41.307Z,-4.45
2022-12-13T21:44:11.026Z,-4.53
2022-12-13T21:49:26.843Z,-4.39
2022-12-13T21:51:55.112Z,-4.34
2022-12-13T21:54:24.413Z,-4.30
2022-12-13T21:57:09.816Z,-4.30
2022-12-13T21:59:38.459Z,-4.30
2022-12-13T22:02:15.009Z,-4.28
2022-12-13T22:04:47.126Z,-4.27
2022-12-13T22:07:16.721Z,-4.26
2022-12-13T22:09:46.630Z,-4.26
2022-12-13T22:12:21.465Z,-4.28
2022-12-13T22:14:49.758Z,-4.27
2022-12-13T22:17:17.869Z,-4.24
2022-12-13T22:19:48.800Z,-4.21
2022-12-13T22:22:18.023Z,-4.22
2022-12-13T22:24:53.115Z,-4.26
2022-12-13T22:27:24.080Z,-4.24
2022-12-13T22:29:53.405Z,-4.19
2022-12-13T22:32:22.557Z,-4.20
2022-12-13T22:34:50.566Z,-4.26
2022-12-13T22:37:18.509Z,-4.23
2022-12-13T22:39:47.807Z,-4.16
2022-12-13T22:42:15.806Z,-4.17
2022-12-13T22:44:43.870Z,-4.16
2022-12-13T22:47:11.894Z,-4.22
2022-12-13T22:49:40.072Z,-4.25
2022-12-13T22:52:08.206Z,-4.26
2022-12-13T22:54:36.112Z,-4.24
2022-12-13T22:57:05.746Z,-4.23
2022-12-13T22:59:34.134Z,-4.24
2022-12-13T23:02:03.915Z,-4.13
2022-12-13T23:04:32.522Z,-4.17
2022-12-13T23:07:00.451Z,-4.12
2022-12-13T23:09:28.377Z,-4.10
2022-12-13T23:12:13.808Z,-4.19
2022-12-13T23:14:43.095Z,-4.11
2022-12-13T23:17:11.391Z,-4.02
2022-12-13T23:19:50.784Z,-4.06
2022-12-13T23:22:21.931Z,-4.09
2022-12-13T23:24:50.389Z,-4.04
2022-12-13T23:27:18.897Z,-4.00
2022-12-13T23:29:48.236Z,-4.03
2022-12-13T23:32:16.121Z,-3.99
2022-12-13T23:34:43.968Z,-4.05
2022-12-13T23:37:12.008Z,-4.00
2022-12-13T23:39:40.223Z,-3.90
2022-12-13T23:42:08.168Z,-3.87
2022-12-13T23:44:36.257Z,-3.97
2022-12-13T23:47:05.614Z,-3.98
2022-12-13T23:49:33.426Z,-3.99
2022-12-13T23:52:01.366Z,-4.01
2022-12-13T23:54:32.187Z,-3.96
2022-12-13T23:57:00.048Z,-3.92
2022-12-13T23:59:28.921Z,-4.05
